createdAt,value
2019-02-23T00:02:28.607Z,10.43
2019-02-23T00:04:59.764Z,9.47
2019-02-23T00:07:31.063Z,10.07
2019-02-23T00:10:02.216Z,9.80
2019-02-23T00:12:35.194Z,8.80
2019-02-23T00:15:06.929Z,9.17
2019-02-23T00:17:38.252Z,9.83
2019-02-23T00:20:09.419Z,8.13
2019-02-23T00:22:40.710Z,9.17
2019-02-23T00:25:11.882Z,9.70
2019-02-23T00:27:43.124Z,9.33
2019-02-23T00:30:14.325Z,9.50
2019-02-23T00:32:45.593Z,10.60
2019-02-23T00:35:16.811Z,8.83
2019-02-23T00:37:47.993Z,9.70
2019-02-23T00:40:19.143Z,11.53
2019-02-23T00:42:50.364Z,10.10
2019-02-23T00:45:21.704Z,9.43
2019-02-23T00:47:52.957Z,9.53
2019-02-23T00:50:24.241Z,8.53
2019-02-23T00:52:55.372Z,8.77
2019-02-23T00:55:26.643Z,9.10
2019-02-23T00:57:58.000Z,9.33
2019-02-23T01:00:29.155Z,9.73
2019-02-23T01:03:00.342Z,8.83
2019-02-23T01:05:31.569Z,9.27
2019-02-23T01:08:02.906Z,9.73
2019-02-23T01:10:34.156Z,9.20
2019-02-23T01:13:05.453Z,8.93
2019-02-23T01:15:36.695Z,11.13
2019-02-23T01:18:07.921Z,9.43
2019-02-23T01:20:39.152Z,9.80
2019-02-23T01:23:10.454Z,10.70
2019-02-23T01:25:41.601Z,12.20
2019-02-23T01:28:12.916Z,10.00
2019-02-23T01:30:44.128Z,11.57
2019-02-23T01:33:15.381Z,8.70
2019-02-23T01:35:46.569Z,9.60
2019-02-23T01:38:17.812Z,9.07
2019-02-23T01:40:49.000Z,9.63
2019-02-23T01:43:20.255Z,9.97
2019-02-23T01:45:51.485Z,10.27
2019-02-23T01:48:22.648Z,10.50
2019-02-23T01:50:53.876Z,11.10
2019-02-23T01:53:25.025Z,9.67
2019-02-23T01:55:56.263Z,10.67
2019-02-23T01:58:27.461Z,10.03
2019-02-23T02:00:58.663Z,10.20
2019-02-23T02:03:29.810Z,9.70
2019-02-23T02:06:01.174Z,9.20
2019-02-23T02:08:32.780Z,9.83
2019-02-23T02:11:03.969Z,13.20
2019-02-23T02:13:35.212Z,10.27
2019-02-23T02:16:06.441Z,11.07
2019-02-23T02:18:37.677Z,9.60
2019-02-23T02:21:08.929Z,11.17
2019-02-23T02:23:40.102Z,8.87
2019-02-23T02:26:11.666Z,9.63
2019-02-23T02:28:42.848Z,11.20
2019-02-23T02:31:14.019Z,14.80
2019-02-23T02:34:11.545Z,10.40
2019-02-23T02:36:42.704Z,9.67
2019-02-23T02:39:15.079Z,10.03
2019-02-23T02:41:46.350Z,10.93
2019-02-23T02:44:17.571Z,12.97
2019-02-23T02:46:48.765Z,11.00
2019-02-23T02:49:19.970Z,11.73
2019-02-23T02:51:51.170Z,13.13
2019-02-23T02:54:22.326Z,13.87
2019-02-23T02:56:53.546Z,12.03
2019-02-23T02:59:25.819Z,12.50
2019-02-23T03:01:58.897Z,12.00
2019-02-23T03:04:30.001Z,12.23
2019-02-23T03:07:01.173Z,12.20
2019-02-23T03:09:32.400Z,10.40
2019-02-23T03:12:03.588Z,10.40
2019-02-23T03:14:34.821Z,11.27
2019-02-23T03:17:05.945Z,12.90
2019-02-23T03:19:37.115Z,11.33
2019-02-23T03:22:08.299Z,13.87
2019-02-23T03:24:39.610Z,10.53
2019-02-23T03:27:10.821Z,10.73
2019-02-23T03:29:42.060Z,11.40
2019-02-23T03:32:13.250Z,12.70
2019-02-23T03:34:44.477Z,12.07
2019-02-23T03:37:15.675Z,14.93
2019-02-23T03:39:46.777Z,11.57
2019-02-23T03:42:18.349Z,14.60
2019-02-23T03:44:49.512Z,11.37
2019-02-23T03:47:20.757Z,12.40
2019-02-23T03:49:52.017Z,12.23
2019-02-23T03:52:23.239Z,10.93
2019-02-23T03:54:54.434Z,14.00
2019-02-23T03:57:25.692Z,12.20
2019-02-23T03:59:56.937Z,10.07
2019-02-23T04:02:28.068Z,12.37
2019-02-23T04:04:59.316Z,11.17
2019-02-23T04:07:30.633Z,10.67
2019-02-23T04:10:01.817Z,10.20
2019-02-23T04:12:34.351Z,10.37
2019-02-23T04:15:05.574Z,10.93
2019-02-23T04:17:36.776Z,11.60
2019-02-23T04:20:07.899Z,11.73
2019-02-23T04:22:39.069Z,11.30
2019-02-23T04:25:10.200Z,12.70
2019-02-23T04:27:44.817Z,12.30
2019-02-23T04:30:15.964Z,11.73
2019-02-23T04:32:47.119Z,17.97
2019-02-23T04:35:18.361Z,14.10
2019-02-23T04:37:49.536Z,11.27
2019-02-23T04:40:20.788Z,11.53
2019-02-23T04:42:51.936Z,14.67
2019-02-23T04:45:23.223Z,11.83
2019-02-23T04:47:54.452Z,11.87
2019-02-23T04:50:25.643Z,15.63
2019-02-23T04:52:56.858Z,12.00
2019-02-23T04:55:28.130Z,14.17
2019-02-23T04:57:59.348Z,17.43
2019-02-23T05:00:30.537Z,11.23
2019-02-23T05:03:01.702Z,15.00
2019-02-23T05:05:33.150Z,17.33
2019-02-23T05:08:04.313Z,14.10
2019-02-23T05:10:35.483Z,15.27
2019-02-23T05:13:06.674Z,16.67
2019-02-23T05:15:37.990Z,17.77
2019-02-23T05:18:09.170Z,17.00
2019-02-23T05:20:40.377Z,14.57
2019-02-23T05:23:11.601Z,13.43
2019-02-23T05:25:42.801Z,13.83
2019-02-23T05:28:14.005Z,14.03
2019-02-23T05:30:45.247Z,13.00
2019-02-23T05:33:16.414Z,11.57
2019-02-23T05:35:49.738Z,12.73
2019-02-23T05:38:21.008Z,16.67
2019-02-23T05:40:52.190Z,15.40
2019-02-23T05:43:23.465Z,12.90
2019-02-23T05:45:54.765Z,21.47
2019-02-23T05:48:26.022Z,21.03
2019-02-23T05:50:57.425Z,16.37
2019-02-23T05:53:28.642Z,17.73
2019-02-23T05:55:59.943Z,12.77
2019-02-23T05:58:31.165Z,12.57
2019-02-23T06:01:02.390Z,13.67
2019-02-23T06:03:34.569Z,14.97
2019-02-23T06:06:05.845Z,13.57
2019-02-23T06:08:37.172Z,13.17
2019-02-23T06:11:08.446Z,13.30
2019-02-23T06:13:39.690Z,15.00
2019-02-23T06:16:10.894Z,15.00
2019-02-23T06:18:42.097Z,18.47
2019-02-23T06:21:13.389Z,13.03
2019-02-23T06:23:44.657Z,15.30
2019-02-23T06:26:15.828Z,15.77
2019-02-23T06:28:47.004Z,15.53
2019-02-23T06:31:18.270Z,18.93
2019-02-23T06:33:49.451Z,15.30
2019-02-23T06:36:20.719Z,13.30
2019-02-23T06:38:52.906Z,11.60
2019-02-23T06:41:25.312Z,12.77
2019-02-23T06:43:56.751Z,16.17
2019-02-23T06:46:27.983Z,13.10
2019-02-23T06:48:59.198Z,14.60
2019-02-23T06:51:30.469Z,13.30
2019-02-23T06:54:01.676Z,14.43
2019-02-23T06:56:32.900Z,15.67
2019-02-23T06:59:04.118Z,17.33
2019-02-23T07:01:35.325Z,14.30
2019-02-23T07:04:06.588Z,16.37
2019-02-23T07:06:37.872Z,20.03
2019-02-23T07:09:09.111Z,14.67
2019-02-23T07:11:40.347Z,17.00
2019-02-23T07:14:12.314Z,16.77
2019-02-23T07:16:43.807Z,16.97
2019-02-23T07:19:15.036Z,15.87
2019-02-23T07:21:46.235Z,21.47
2019-02-23T07:24:17.551Z,23.03
2019-02-23T07:26:48.792Z,17.80
2019-02-23T07:29:20.051Z,24.77
2019-02-23T07:31:51.830Z,21.33
2019-02-23T07:34:23.145Z,17.17
2019-02-23T07:36:54.513Z,23.50
2019-02-23T07:39:25.760Z,22.73
2019-02-23T07:41:56.940Z,21.57
2019-02-23T07:44:29.882Z,22.43
2019-02-23T07:47:01.696Z,20.73
2019-02-23T07:49:34.858Z,19.80
2019-02-23T07:52:06.849Z,18.93
2019-02-23T07:54:38.102Z,22.20
2019-02-23T07:57:10.250Z,18.63
2019-02-23T07:59:42.623Z,15.30
2019-02-23T08:02:13.912Z,18.13
2019-02-23T08:04:45.220Z,15.87
2019-02-23T08:07:16.420Z,17.33
2019-02-23T08:09:47.606Z,16.97
2019-02-23T08:12:18.945Z,19.20
2019-02-23T08:14:50.127Z,13.80
2019-02-23T08:17:21.309Z,15.00
2019-02-23T08:19:52.947Z,15.37
2019-02-23T08:22:24.141Z,21.43
2019-02-23T08:24:55.380Z,16.07
2019-02-23T08:27:26.655Z,19.03
2019-02-23T08:29:57.878Z,17.43
2019-02-23T08:32:29.071Z,14.23
2019-02-23T08:35:00.422Z,15.03
2019-02-23T08:37:31.617Z,18.47
2019-02-23T08:40:03.991Z,21.40
2019-02-23T08:42:35.245Z,16.70
2019-02-23T08:45:07.273Z,22.03
2019-02-23T08:47:38.448Z,14.10
2019-02-23T08:50:11.100Z,16.43
2019-02-23T08:52:49.365Z,15.10
2019-02-23T08:55:15.250Z,11.87
2019-02-23T08:57:46.445Z,16.10
2019-02-23T09:00:17.708Z,16.03
2019-02-23T09:02:49.112Z,16.40
2019-02-23T09:05:20.247Z,18.00
2019-02-23T09:07:52.527Z,14.10
2019-02-23T09:10:24.631Z,12.90
2019-02-23T09:12:55.948Z,15.77
2019-02-23T09:15:27.143Z,19.00
2019-02-23T09:17:58.356Z,19.17
2019-02-23T09:20:29.799Z,19.80
2019-02-23T09:23:01.882Z,15.17
2019-02-23T09:25:33.423Z,15.60
2019-02-23T09:28:04.670Z,16.53
2019-02-23T09:30:35.874Z,17.43
2019-02-23T09:33:07.073Z,17.53
2019-02-23T09:35:38.230Z,17.17
2019-02-23T09:38:09.522Z,18.00
2019-02-23T09:40:41.616Z,15.20
2019-02-23T09:43:13.170Z,16.07
2019-02-23T09:45:44.357Z,16.13
2019-02-23T09:48:15.659Z,18.43
2019-02-23T09:50:46.959Z,15.67
2019-02-23T09:53:18.319Z,17.27
2019-02-23T09:55:49.554Z,15.43
2019-02-23T09:58:20.782Z,18.63
2019-02-23T10:00:52.091Z,16.40
2019-02-23T10:03:23.526Z,15.83
2019-02-23T10:05:54.773Z,19.03
2019-02-23T10:08:25.950Z,15.97
2019-02-23T10:10:57.706Z,17.73
2019-02-23T10:13:29.086Z,13.87
2019-02-23T10:16:00.577Z,18.67
2019-02-23T10:18:31.853Z,17.67
2019-02-23T10:21:03.025Z,14.50
2019-02-23T10:23:35.226Z,20.33
2019-02-23T10:26:06.421Z,17.77
2019-02-23T10:28:37.752Z,17.00
2019-02-23T10:31:09.042Z,19.33
2019-02-23T10:33:47.431Z,19.10
2019-02-23T10:36:13.263Z,16.13
2019-02-23T10:38:44.465Z,13.43
2019-02-23T10:41:16.214Z,15.33
2019-02-23T10:43:47.878Z,18.13
2019-02-23T10:46:19.205Z,13.03
2019-02-23T10:48:50.396Z,15.33
2019-02-23T10:51:21.587Z,14.77
2019-02-23T10:53:52.761Z,14.93
2019-02-23T10:56:24.015Z,17.83
2019-02-23T10:58:55.325Z,19.97
2019-02-23T11:01:26.915Z,15.50
2019-02-23T11:03:58.162Z,13.83
2019-02-23T11:06:29.341Z,16.17
2019-02-23T11:09:00.753Z,15.70
2019-02-23T11:11:34.394Z,16.03
2019-02-23T11:14:05.708Z,13.13
2019-02-23T11:16:36.910Z,17.07
2019-02-23T11:19:08.100Z,15.83
2019-02-23T11:21:39.282Z,14.33
2019-02-23T11:24:10.474Z,16.13
2019-02-23T11:26:41.680Z,15.13
2019-02-23T11:29:12.863Z,16.07
2019-02-23T11:31:44.089Z,13.30
2019-02-23T11:34:15.229Z,14.07
2019-02-23T11:36:46.442Z,13.00
2019-02-23T11:39:17.639Z,14.87
2019-02-23T11:41:48.864Z,15.83
2019-02-23T11:44:20.100Z,13.87
2019-02-23T11:47:00.394Z,16.33
2019-02-23T11:49:25.343Z,14.07
2019-02-23T11:51:56.540Z,12.50
2019-02-23T11:54:27.760Z,14.13
2019-02-23T11:56:58.977Z,13.67
2019-02-23T11:59:30.263Z,13.17
2019-02-23T12:02:01.466Z,14.73
2019-02-23T12:04:32.608Z,13.57
2019-02-23T12:07:03.806Z,17.60
2019-02-23T12:09:34.980Z,12.80
2019-02-23T12:12:06.152Z,15.03
2019-02-23T12:14:37.330Z,13.80
2019-02-23T12:17:08.561Z,13.47
2019-02-23T12:19:39.745Z,15.50
2019-02-23T12:22:12.544Z,12.90
2019-02-23T12:24:43.975Z,13.43
2019-02-23T12:27:15.180Z,14.60
2019-02-23T12:29:46.350Z,13.53
2019-02-23T12:32:17.682Z,13.50
2019-02-23T12:34:49.047Z,14.07
2019-02-23T12:37:20.222Z,11.73
2019-02-23T12:39:51.418Z,13.87
2019-02-23T12:42:22.606Z,14.10
2019-02-23T12:44:53.786Z,18.07
2019-02-23T12:47:24.952Z,15.90
2019-02-23T12:49:56.141Z,14.20
2019-02-23T12:52:27.312Z,15.87
2019-02-23T12:54:58.586Z,15.37
2019-02-23T12:57:29.766Z,14.80
2019-02-23T13:00:00.978Z,16.93
2019-02-23T13:02:33.955Z,14.50
2019-02-23T13:05:05.392Z,15.60
2019-02-23T13:07:36.544Z,16.13
2019-02-23T13:10:11.307Z,14.27
2019-02-23T13:13:03.357Z,19.00
2019-02-23T13:15:57.488Z,15.80
2019-02-23T13:18:50.806Z,15.50
2019-02-23T13:22:02.377Z,15.05
2019-02-23T13:24:55.837Z,16.10
2019-02-23T13:27:52.197Z,18.20
2019-02-23T13:30:52.303Z,15.98
2019-02-23T13:34:02.012Z,15.10
2019-02-23T13:37:05.884Z,14.93
2019-02-23T13:40:36.382Z,15.85
2019-02-23T13:43:43.543Z,15.72
2019-02-23T13:46:38.052Z,14.25
2019-02-23T13:49:48.761Z,16.90
2019-02-23T13:53:15.966Z,18.60
2019-02-23T13:56:14.536Z,19.00
2019-02-23T13:59:25.412Z,15.83
2019-02-23T14:02:59.085Z,16.25
2019-02-23T14:05:45.371Z,15.65
2019-02-23T14:08:51.288Z,13.93
2019-02-23T14:11:47.658Z,16.65
2019-02-23T14:14:43.160Z,16.02
2019-02-23T14:17:51.267Z,16.23
2019-02-23T14:20:42.793Z,14.60
2019-02-23T14:23:53.223Z,15.45
2019-02-23T14:26:38.922Z,16.02
2019-02-23T14:29:54.006Z,16.67
2019-02-23T14:33:09.552Z,20.17
2019-02-23T14:36:14.772Z,14.85
2019-02-23T14:39:48.205Z,15.55
2019-02-23T14:42:44.932Z,15.63
2019-02-23T14:45:46.947Z,16.02
2019-02-23T14:48:41.286Z,15.25
2019-02-23T14:52:15.294Z,15.63
2019-02-23T14:55:17.141Z,16.95
2019-02-23T14:58:28.811Z,14.98
2019-02-23T15:01:32.197Z,16.40
2019-02-23T15:04:49.899Z,17.32
2019-02-23T15:08:16.708Z,15.03
2019-02-23T15:11:35.336Z,15.40
2019-02-23T15:14:44.673Z,15.18
2019-02-23T15:17:51.445Z,16.73
2019-02-23T15:21:16.657Z,16.65
2019-02-23T15:24:07.976Z,16.40
2019-02-23T15:27:17.234Z,15.63
2019-02-23T15:30:18.781Z,16.07
2019-02-23T15:33:33.877Z,15.25
2019-02-23T15:36:45.422Z,16.35
2019-02-23T15:40:05.524Z,17.57
2019-02-23T15:42:55.136Z,18.20
2019-02-23T15:45:59.338Z,16.73
2019-02-23T15:48:59.889Z,16.45
2019-02-23T15:51:31.534Z,17.35
2019-02-23T15:54:02.906Z,17.52
2019-02-23T15:56:34.126Z,16.12
2019-02-23T15:59:06.119Z,20.20
2019-02-23T16:01:38.140Z,19.17
2019-02-23T16:04:09.415Z,43.33
2019-02-23T16:06:40.854Z,21.25
2019-02-23T16:09:12.134Z,20.05
2019-02-23T16:11:45.239Z,20.10
2019-02-23T16:14:16.385Z,19.80
2019-02-23T16:16:47.951Z,16.93
2019-02-23T16:19:21.142Z,16.90
2019-02-23T16:21:53.049Z,17.90
2019-02-23T16:24:24.673Z,17.48
2019-02-23T16:26:56.188Z,21.30
2019-02-23T16:29:27.576Z,20.00
2019-02-23T16:31:58.788Z,18.70
2019-02-23T16:34:30.019Z,24.63
2019-02-23T16:37:01.178Z,20.60
2019-02-23T16:39:33.368Z,19.97
2019-02-23T16:42:04.625Z,22.27
2019-02-23T16:44:35.936Z,24.10
2019-02-23T16:47:07.186Z,22.37
2019-02-23T16:49:38.574Z,23.60
2019-02-23T16:52:09.850Z,19.33
2019-02-23T16:54:41.103Z,23.67
2019-02-23T16:57:12.348Z,23.97
2019-02-23T16:59:44.663Z,27.23
2019-02-23T17:02:15.842Z,25.93
2019-02-23T17:04:53.605Z,24.60
2019-02-23T17:07:20.047Z,21.57
2019-02-23T17:09:51.228Z,21.40
2019-02-23T17:12:22.496Z,24.37
2019-02-23T17:14:54.020Z,28.47
2019-02-23T17:17:25.211Z,21.17
2019-02-23T17:19:56.644Z,18.73
2019-02-23T17:22:28.118Z,25.20
2019-02-23T17:24:59.329Z,20.87
2019-02-23T17:27:36.857Z,23.63
2019-02-23T17:30:04.626Z,23.93
2019-02-23T17:32:35.935Z,27.07
2019-02-23T17:35:07.222Z,21.63
2019-02-23T17:37:38.462Z,23.63
2019-02-23T17:40:09.910Z,25.50
2019-02-23T17:42:41.130Z,25.90
2019-02-23T17:45:13.356Z,27.60
2019-02-23T17:47:44.653Z,27.97
2019-02-23T17:50:15.849Z,27.00
2019-02-23T17:52:47.051Z,36.37
2019-02-23T17:55:18.325Z,30.17
2019-02-23T17:57:49.612Z,29.57
2019-02-23T18:00:23.626Z,26.03
2019-02-23T18:02:55.076Z,27.53
2019-02-23T18:05:26.235Z,23.53
2019-02-23T18:07:57.580Z,28.23
2019-02-23T18:10:28.733Z,27.83
2019-02-23T18:13:00.026Z,26.43
2019-02-23T18:15:31.267Z,21.90
2019-02-23T18:18:02.617Z,33.77
2019-02-23T18:20:34.049Z,35.17
2019-02-23T18:23:05.536Z,26.27
2019-02-23T18:25:36.914Z,26.37
2019-02-23T18:28:08.367Z,35.47
2019-02-23T18:30:39.550Z,27.93
2019-02-23T18:33:10.917Z,26.87
2019-02-23T18:35:42.229Z,26.30
2019-02-23T18:38:13.435Z,26.90
2019-02-23T18:40:44.813Z,25.83
2019-02-23T18:43:16.159Z,25.27
2019-02-23T18:45:47.786Z,24.57
2019-02-23T18:48:19.367Z,26.73
2019-02-23T18:50:50.720Z,26.07
2019-02-23T18:53:22.031Z,27.43
2019-02-23T18:55:53.427Z,24.23
2019-02-23T18:58:24.659Z,28.17
2019-02-23T19:00:55.898Z,26.97
2019-02-23T19:03:27.156Z,26.67
2019-02-23T19:05:58.412Z,58.87
2019-02-23T19:08:29.733Z,42.27
2019-02-23T19:11:01.031Z,32.17
2019-02-23T19:13:33.296Z,29.80
2019-02-23T19:16:05.653Z,27.87
2019-02-23T19:18:36.918Z,25.93
2019-02-23T19:21:08.146Z,29.07
2019-02-23T19:23:39.350Z,26.17
2019-02-23T19:26:10.720Z,26.03
2019-02-23T19:28:43.361Z,25.23
2019-02-23T19:31:14.901Z,28.97
2019-02-23T19:33:47.743Z,31.00
2019-02-23T19:36:20.222Z,29.37
2019-02-23T19:38:51.454Z,26.13
2019-02-23T19:41:22.725Z,28.30
2019-02-23T19:43:54.095Z,27.13
2019-02-23T19:46:25.596Z,27.33
2019-02-23T19:48:56.789Z,23.33
2019-02-23T19:51:27.985Z,26.33
2019-02-23T19:53:59.174Z,21.80
2019-02-23T19:56:31.831Z,23.73
2019-02-23T19:59:03.314Z,22.90
2019-02-23T20:01:35.685Z,22.93
2019-02-23T20:04:06.965Z,24.60
2019-02-23T20:06:38.232Z,26.40
2019-02-23T20:09:09.409Z,24.50
2019-02-23T20:11:42.789Z,24.50
2019-02-23T20:14:14.180Z,24.77
2019-02-23T20:16:45.370Z,23.70
2019-02-23T20:19:16.680Z,23.67
2019-02-23T20:21:47.921Z,27.70
2019-02-23T20:24:19.172Z,25.77
2019-02-23T20:26:55.638Z,23.07
2019-02-23T20:29:24.509Z,28.50
2019-02-23T20:31:55.799Z,28.97
2019-02-23T20:34:27.090Z,22.03
2019-02-23T20:36:58.410Z,28.10
2019-02-23T20:39:29.673Z,30.00
2019-02-23T20:42:00.856Z,26.50
2019-02-23T20:44:32.299Z,26.33
2019-02-23T20:47:03.431Z,27.17
2019-02-23T20:49:35.756Z,31.67
2019-02-23T20:52:08.099Z,28.47
2019-02-23T20:54:39.518Z,25.10
2019-02-23T20:57:14.048Z,30.13
2019-02-23T20:59:43.615Z,28.73
2019-02-23T21:02:14.832Z,27.63
2019-02-23T21:04:46.025Z,30.23
2019-02-23T21:07:17.248Z,28.03
2019-02-23T21:09:48.432Z,29.83
2019-02-23T21:12:21.400Z,29.83
2019-02-23T21:14:53.278Z,28.63
2019-02-23T21:17:24.470Z,28.60
2019-02-23T21:19:55.738Z,27.37
2019-02-23T21:22:26.931Z,30.87
2019-02-23T21:24:58.207Z,26.63
2019-02-23T21:27:29.672Z,26.10
2019-02-23T21:30:01.068Z,24.93
2019-02-23T21:32:32.554Z,32.90
2019-02-23T21:35:04.034Z,29.87
2019-02-23T21:37:36.855Z,29.33
2019-02-23T21:40:08.236Z,27.10
2019-02-23T21:42:40.751Z,29.23
2019-02-23T21:45:12.065Z,34.83
2019-02-23T21:47:43.462Z,30.67
2019-02-23T21:50:14.700Z,29.03
2019-02-23T21:52:47.441Z,27.00
2019-02-23T21:55:19.005Z,29.20
2019-02-23T21:57:50.388Z,26.67
2019-02-23T22:00:21.591Z,29.43
2019-02-23T22:02:53.738Z,30.37
2019-02-23T22:05:25.704Z,30.93
2019-02-23T22:07:58.006Z,29.90
2019-02-23T22:10:30.423Z,27.33
2019-02-23T22:13:04.090Z,29.53
2019-02-23T22:15:35.525Z,27.07
2019-02-23T22:18:06.659Z,29.13
2019-02-23T22:20:37.803Z,28.77
2019-02-23T22:23:09.107Z,28.87
2019-02-23T22:25:40.284Z,28.13
2019-02-23T22:28:11.453Z,29.73
2019-02-23T22:30:42.635Z,30.27
2019-02-23T22:33:14.253Z,26.60
2019-02-23T22:35:45.507Z,29.80
2019-02-23T22:38:16.785Z,30.50
2019-02-23T22:40:48.108Z,26.87
2019-02-23T22:43:19.345Z,25.63
2019-02-23T22:45:53.163Z,28.40
2019-02-23T22:48:25.479Z,29.63
2019-02-23T22:50:56.703Z,32.17
2019-02-23T22:53:27.999Z,31.67
2019-02-23T22:55:59.274Z,26.83
2019-02-23T22:58:30.509Z,29.93
2019-02-23T23:01:02.884Z,25.53
2019-02-23T23:03:36.073Z,31.07
2019-02-23T23:06:07.376Z,27.67
2019-02-23T23:08:38.643Z,29.73
2019-02-23T23:11:10.043Z,26.53
2019-02-23T23:13:41.325Z,31.60
2019-02-23T23:16:12.625Z,26.90
2019-02-23T23:18:43.902Z,27.57
2019-02-23T23:21:15.223Z,25.80
2019-02-23T23:23:46.463Z,28.77
2019-02-23T23:26:17.778Z,25.57
2019-02-23T23:28:49.044Z,29.07
2019-02-23T23:31:20.225Z,29.80
2019-02-23T23:33:51.554Z,27.50
2019-02-23T23:36:22.714Z,27.97
2019-02-23T23:38:53.899Z,29.57
2019-02-23T23:41:25.190Z,29.67
2019-02-23T23:43:56.303Z,26.67
2019-02-23T23:46:27.528Z,29.37
2019-02-23T23:48:58.793Z,31.43
2019-02-23T23:51:30.008Z,28.87
2019-02-23T23:54:01.216Z,27.30
2019-02-23T23:56:32.491Z,27.03
2019-02-23T23:59:03.625Z,28.63
